sensor_id;sensor_type;location;lat;lon;timestamp;P1;durP1;ratioP1;P2;durP2;ratioP2
19291;SDS011;9779;51.756;7.450;2023-02-22T00:00:35;50.47;;;26.60;;
19291;SDS011;9779;51.756;7.450;2023-02-22T00:03:08;40.60;;;24.83;;
19291;SDS011;9779;51.756;7.450;2023-02-22T00:05:53;45.27;;;26.90;;
19291;SDS011;9779;51.756;7.450;2023-02-22T00:08:24;44.33;;;26.13;;
19291;SDS011;9779;51.756;7.450;2023-02-22T00:10:58;44.40;;;26.53;;
19291;SDS011;9779;51.756;7.450;2023-02-22T00:13:24;45.10;;;26.13;;
19291;SDS011;9779;51.756;7.450;2023-02-22T00:15:53;49.23;;;25.97;;
19291;SDS011;9779;51.756;7.450;2023-02-22T00:18:22;41.83;;;24.43;;
19291;SDS011;9779;51.756;7.450;2023-02-22T00:20:48;40.33;;;25.43;;
19291;SDS011;9779;51.756;7.450;2023-02-22T00:23:18;40.83;;;24.53;;
19291;SDS011;9779;51.756;7.450;2023-02-22T00:25:46;38.73;;;23.23;;
19291;SDS011;9779;51.756;7.450;2023-02-22T00:28:12;43.10;;;24.47;;
19291;SDS011;9779;51.756;7.450;2023-02-22T00:30:39;38.87;;;24.77;;
19291;SDS011;9779;51.756;7.450;2023-02-22T00:33:07;36.80;;;23.73;;
19291;SDS011;9779;51.756;7.450;2023-02-22T00:35:34;39.90;;;23.57;;
19291;SDS011;9779;51.756;7.450;2023-02-22T00:38:00;38.43;;;24.63;;
19291;SDS011;9779;51.756;7.450;2023-02-22T00:40:28;39.00;;;23.57;;
19291;SDS011;9779;51.756;7.450;2023-02-22T00:42:56;40.80;;;23.97;;
19291;SDS011;9779;51.756;7.450;2023-02-22T00:45:23;43.53;;;24.20;;
19291;SDS011;9779;51.756;7.450;2023-02-22T00:47:50;39.37;;;23.97;;
19291;SDS011;9779;51.756;7.450;2023-02-22T00:50:16;39.50;;;23.93;;
19291;SDS011;9779;51.756;7.450;2023-02-22T00:52:43;38.90;;;22.87;;
19291;SDS011;9779;51.756;7.450;2023-02-22T00:55:13;37.67;;;24.03;;
19291;SDS011;9779;51.756;7.450;2023-02-22T00:57:40;40.07;;;24.23;;
19291;SDS011;9779;51.756;7.450;2023-02-22T01:00:07;39.47;;;22.80;;
19291;SDS011;9779;51.756;7.450;2023-02-22T01:02:38;36.57;;;23.07;;
19291;SDS011;9779;51.756;7.450;2023-02-22T01:05:04;39.33;;;22.50;;
19291;SDS011;9779;51.756;7.450;2023-02-22T01:07:31;34.23;;;22.80;;
19291;SDS011;9779;51.756;7.450;2023-02-22T01:09:56;41.93;;;23.93;;
19291;SDS011;9779;51.756;7.450;2023-02-22T01:12:22;48.80;;;24.97;;
19291;SDS011;9779;51.756;7.450;2023-02-22T01:14:47;45.47;;;24.37;;
19291;SDS011;9779;51.756;7.450;2023-02-22T01:17:13;49.03;;;25.30;;
19291;SDS011;9779;51.756;7.450;2023-02-22T01:19:39;46.80;;;26.33;;
19291;SDS011;9779;51.756;7.450;2023-02-22T01:22:07;47.03;;;25.93;;
19291;SDS011;9779;51.756;7.450;2023-02-22T01:24:33;52.10;;;26.47;;
19291;SDS011;9779;51.756;7.450;2023-02-22T01:26:59;50.63;;;27.20;;
19291;SDS011;9779;51.756;7.450;2023-02-22T01:29:26;54.77;;;27.27;;
19291;SDS011;9779;51.756;7.450;2023-02-22T01:31:52;59.07;;;27.57;;
19291;SDS011;9779;51.756;7.450;2023-02-22T01:34:20;53.67;;;26.53;;
19291;SDS011;9779;51.756;7.450;2023-02-22T01:36:47;53.80;;;27.97;;
19291;SDS011;9779;51.756;7.450;2023-02-22T01:39:12;59.33;;;28.47;;
19291;SDS011;9779;51.756;7.450;2023-02-22T01:41:38;53.70;;;28.20;;
19291;SDS011;9779;51.756;7.450;2023-02-22T01:44:16;53.97;;;27.40;;
19291;SDS011;9779;51.756;7.450;2023-02-22T01:46:45;52.77;;;27.37;;
19291;SDS011;9779;51.756;7.450;2023-02-22T01:49:10;54.40;;;28.07;;
19291;SDS011;9779;51.756;7.450;2023-02-22T01:51:39;58.27;;;29.03;;
19291;SDS011;9779;51.756;7.450;2023-02-22T01:54:19;64.77;;;28.37;;
19291;SDS011;9779;51.756;7.450;2023-02-22T01:57:07;57.63;;;26.97;;
19291;SDS011;9779;51.756;7.450;2023-02-22T01:59:32;54.00;;;27.90;;
19291;SDS011;9779;51.756;7.450;2023-02-22T02:02:01;60.93;;;29.17;;
19291;SDS011;9779;51.756;7.450;2023-02-22T02:04:28;59.87;;;28.83;;
19291;SDS011;9779;51.756;7.450;2023-02-22T02:06:55;60.60;;;28.93;;
19291;SDS011;9779;51.756;7.450;2023-02-22T02:09:26;63.07;;;30.50;;
19291;SDS011;9779;51.756;7.450;2023-02-22T02:11:58;55.07;;;28.70;;
19291;SDS011;9779;51.756;7.450;2023-02-22T02:14:24;58.67;;;29.53;;
19291;SDS011;9779;51.756;7.450;2023-02-22T02:16:51;62.20;;;29.83;;
19291;SDS011;9779;51.756;7.450;2023-02-22T02:19:28;68.03;;;30.57;;
19291;SDS011;9779;51.756;7.450;2023-02-22T02:22:07;60.50;;;29.13;;
19291;SDS011;9779;51.756;7.450;2023-02-22T02:24:47;68.70;;;30.70;;
19291;SDS011;9779;51.756;7.450;2023-02-22T02:27:28;68.70;;;29.90;;
19291;SDS011;9779;51.756;7.450;2023-02-22T02:30:15;64.97;;;30.47;;
19291;SDS011;9779;51.756;7.450;2023-02-22T02:33:20;67.07;;;29.63;;
19291;SDS011;9779;51.756;7.450;2023-02-22T02:36:29;70.43;;;31.30;;
19291;SDS011;9779;51.756;7.450;2023-02-22T02:38:56;67.33;;;30.90;;
19291;SDS011;9779;51.756;7.450;2023-02-22T02:41:33;61.93;;;30.53;;
19291;SDS011;9779;51.756;7.450;2023-02-22T02:44:04;70.57;;;31.93;;
19291;SDS011;9779;51.756;7.450;2023-02-22T02:46:39;67.47;;;30.00;;
19291;SDS011;9779;51.756;7.450;2023-02-22T02:49:21;65.07;;;29.63;;
19291;SDS011;9779;51.756;7.450;2023-02-22T02:51:51;67.57;;;30.13;;
19291;SDS011;9779;51.756;7.450;2023-02-22T02:54:19;70.00;;;30.53;;
19291;SDS011;9779;51.756;7.450;2023-02-22T02:56:47;67.23;;;30.13;;
19291;SDS011;9779;51.756;7.450;2023-02-22T03:10:58;63.97;;;29.40;;
19291;SDS011;9779;51.756;7.450;2023-02-22T03:16:28;72.63;;;27.40;;
19291;SDS011;9779;51.756;7.450;2023-02-22T03:19:26;53.50;;;25.63;;
19291;SDS011;9779;51.756;7.450;2023-02-22T03:22:02;55.23;;;25.80;;
19291;SDS011;9779;51.756;7.450;2023-02-22T03:27:15;89.07;;;27.37;;
19291;SDS011;9779;51.756;7.450;2023-02-22T03:29:49;58.40;;;24.83;;
19291;SDS011;9779;51.756;7.450;2023-02-22T03:32:19;74.10;;;25.30;;
19291;SDS011;9779;51.756;7.450;2023-02-22T03:34:49;75.60;;;24.73;;
19291;SDS011;9779;51.756;7.450;2023-02-22T03:37:22;74.37;;;24.23;;
19291;SDS011;9779;51.756;7.450;2023-02-22T03:39:53;138.10;;;23.80;;
19291;SDS011;9779;51.756;7.450;2023-02-22T03:42:22;68.17;;;23.20;;
19291;SDS011;9779;51.756;7.450;2023-02-22T03:44:53;51.63;;;23.17;;
19291;SDS011;9779;51.756;7.450;2023-02-22T03:47:31;39.40;;;21.23;;
19291;SDS011;9779;51.756;7.450;2023-02-22T03:50:14;95.63;;;22.03;;
19291;SDS011;9779;51.756;7.450;2023-02-22T03:52:43;57.30;;;21.30;;
19291;SDS011;9779;51.756;7.450;2023-02-22T03:55:11;40.13;;;21.47;;
19291;SDS011;9779;51.756;7.450;2023-02-22T03:57:40;47.60;;;22.30;;
19291;SDS011;9779;51.756;7.450;2023-02-22T04:00:11;39.87;;;19.07;;
19291;SDS011;9779;51.756;7.450;2023-02-22T04:02:39;123.63;;;22.27;;
19291;SDS011;9779;51.756;7.450;2023-02-22T04:05:05;46.30;;;20.43;;
19291;SDS011;9779;51.756;7.450;2023-02-22T04:07:31;58.40;;;19.97;;
19291;SDS011;9779;51.756;7.450;2023-02-22T04:09:57;48.97;;;20.70;;
19291;SDS011;9779;51.756;7.450;2023-02-22T04:12:22;69.40;;;20.53;;
19291;SDS011;9779;51.756;7.450;2023-02-22T04:14:48;64.63;;;19.57;;
19291;SDS011;9779;51.756;7.450;2023-02-22T04:17:13;74.70;;;19.53;;
19291;SDS011;9779;51.756;7.450;2023-02-22T04:19:39;74.07;;;19.80;;
19291;SDS011;9779;51.756;7.450;2023-02-22T04:22:05;76.40;;;17.60;;
19291;SDS011;9779;51.756;7.450;2023-02-22T04:24:30;32.80;;;17.70;;
19291;SDS011;9779;51.756;7.450;2023-02-22T04:26:56;43.03;;;17.23;;
19291;SDS011;9779;51.756;7.450;2023-02-22T04:29:21;45.70;;;15.93;;
19291;SDS011;9779;51.756;7.450;2023-02-22T04:31:47;56.10;;;16.10;;
19291;SDS011;9779;51.756;7.450;2023-02-22T04:34:13;65.90;;;15.90;;
19291;SDS011;9779;51.756;7.450;2023-02-22T04:36:38;19.90;;;16.07;;
19291;SDS011;9779;51.756;7.450;2023-02-22T04:39:06;52.33;;;15.67;;
19291;SDS011;9779;51.756;7.450;2023-02-22T04:41:31;23.00;;;14.00;;
19291;SDS011;9779;51.756;7.450;2023-02-22T04:43:58;19.33;;;14.53;;
19291;SDS011;9779;51.756;7.450;2023-02-22T04:46:23;39.33;;;14.20;;
19291;SDS011;9779;51.756;7.450;2023-02-22T04:48:49;19.50;;;14.07;;
19291;SDS011;9779;51.756;7.450;2023-02-22T04:51:14;29.63;;;14.37;;
19291;SDS011;9779;51.756;7.450;2023-02-22T04:53:40;30.23;;;14.30;;
19291;SDS011;9779;51.756;7.450;2023-02-22T04:56:06;18.53;;;13.60;;
19291;SDS011;9779;51.756;7.450;2023-02-22T04:58:31;26.30;;;14.40;;
19291;SDS011;9779;51.756;7.450;2023-02-22T05:00:57;24.63;;;14.50;;
19291;SDS011;9779;51.756;7.450;2023-02-22T05:03:23;19.07;;;14.20;;
19291;SDS011;9779;51.756;7.450;2023-02-22T05:05:50;22.00;;;14.43;;
19291;SDS011;9779;51.756;7.450;2023-02-22T05:08:16;25.13;;;14.20;;
19291;SDS011;9779;51.756;7.450;2023-02-22T05:10:41;90.43;;;14.13;;
19291;SDS011;9779;51.756;7.450;2023-02-22T05:13:08;29.83;;;13.73;;
19291;SDS011;9779;51.756;7.450;2023-02-22T05:15:34;18.70;;;13.97;;
19291;SDS011;9779;51.756;7.450;2023-02-22T05:17:59;22.13;;;14.33;;
19291;SDS011;9779;51.756;7.450;2023-02-22T05:20:28;40.67;;;14.80;;
19291;SDS011;9779;51.756;7.450;2023-02-22T05:22:56;23.50;;;13.27;;
19291;SDS011;9779;51.756;7.450;2023-02-22T05:25:23;32.57;;;13.33;;
19291;SDS011;9779;51.756;7.450;2023-02-22T05:27:50;43.83;;;14.13;;
19291;SDS011;9779;51.756;7.450;2023-02-22T05:30:22;24.23;;;13.00;;
19291;SDS011;9779;51.756;7.450;2023-02-22T05:32:51;19.30;;;13.57;;
19291;SDS011;9779;51.756;7.450;2023-02-22T05:35:17;16.67;;;14.30;;
19291;SDS011;9779;51.756;7.450;2023-02-22T05:37:44;18.17;;;13.50;;
19291;SDS011;9779;51.756;7.450;2023-02-22T05:40:11;15.70;;;12.50;;
19291;SDS011;9779;51.756;7.450;2023-02-22T05:42:38;34.90;;;13.80;;
19291;SDS011;9779;51.756;7.450;2023-02-22T05:45:06;15.57;;;12.67;;
19291;SDS011;9779;51.756;7.450;2023-02-22T05:47:33;22.37;;;11.57;;
19291;SDS011;9779;51.756;7.450;2023-02-22T05:49:59;34.17;;;12.70;;
19291;SDS011;9779;51.756;7.450;2023-02-22T05:52:25;20.10;;;11.43;;
19291;SDS011;9779;51.756;7.450;2023-02-22T05:54:51;76.20;;;12.37;;
19291;SDS011;9779;51.756;7.450;2023-02-22T05:57:17;23.37;;;12.10;;
19291;SDS011;9779;51.756;7.450;2023-02-22T05:59:42;58.43;;;11.67;;
19291;SDS011;9779;51.756;7.450;2023-02-22T06:02:08;34.97;;;11.87;;
19291;SDS011;9779;51.756;7.450;2023-02-22T06:04:34;44.50;;;11.73;;
19291;SDS011;9779;51.756;7.450;2023-02-22T06:06:59;69.07;;;12.83;;
19291;SDS011;9779;51.756;7.450;2023-02-22T06:09:25;82.73;;;12.27;;
19291;SDS011;9779;51.756;7.450;2023-02-22T06:11:51;24.53;;;11.50;;
19291;SDS011;9779;51.756;7.450;2023-02-22T06:14:16;14.53;;;12.90;;
19291;SDS011;9779;51.756;7.450;2023-02-22T06:16:42;134.93;;;14.30;;
19291;SDS011;9779;51.756;7.450;2023-02-22T06:19:07;51.70;;;12.37;;
19291;SDS011;9779;51.756;7.450;2023-02-22T06:21:33;31.27;;;12.93;;
19291;SDS011;9779;51.756;7.450;2023-02-22T06:24:00;34.03;;;11.40;;
19291;SDS011;9779;51.756;7.450;2023-02-22T06:26:28;25.67;;;12.50;;
19291;SDS011;9779;51.756;7.450;2023-02-22T06:28:53;97.63;;;11.30;;
19291;SDS011;9779;51.756;7.450;2023-02-22T06:31:19;19.73;;;10.90;;
19291;SDS011;9779;51.756;7.450;2023-02-22T06:33:44;24.57;;;11.93;;
19291;SDS011;9779;51.756;7.450;2023-02-22T06:36:10;33.20;;;11.33;;
19291;SDS011;9779;51.756;7.450;2023-02-22T06:38:35;45.93;;;10.73;;
19291;SDS011;9779;51.756;7.450;2023-02-22T06:41:01;42.43;;;12.27;;
19291;SDS011;9779;51.756;7.450;2023-02-22T06:43:26;41.30;;;11.87;;
19291;SDS011;9779;51.756;7.450;2023-02-22T06:45:52;53.27;;;12.03;;
19291;SDS011;9779;51.756;7.450;2023-02-22T06:48:18;33.03;;;11.87;;
19291;SDS011;9779;51.756;7.450;2023-02-22T06:50:43;89.37;;;12.80;;
19291;SDS011;9779;51.756;7.450;2023-02-22T06:53:09;89.03;;;12.80;;
19291;SDS011;9779;51.756;7.450;2023-02-22T06:55:34;79.03;;;12.83;;
19291;SDS011;9779;51.756;7.450;2023-02-22T06:58:01;20.30;;;10.63;;
19291;SDS011;9779;51.756;7.450;2023-02-22T07:00:28;11.70;;;10.17;;
19291;SDS011;9779;51.756;7.450;2023-02-22T07:02:55;18.77;;;9.47;;
19291;SDS011;9779;51.756;7.450;2023-02-22T07:05:21;23.27;;;10.93;;
19291;SDS011;9779;51.756;7.450;2023-02-22T07:07:48;85.90;;;10.10;;
19291;SDS011;9779;51.756;7.450;2023-02-22T07:10:18;11.47;;;10.27;;
19291;SDS011;9779;51.756;7.450;2023-02-22T07:12:48;41.30;;;9.07;;
19291;SDS011;9779;51.756;7.450;2023-02-22T07:15:16;52.10;;;10.27;;
19291;SDS011;9779;51.756;7.450;2023-02-22T07:17:42;47.23;;;9.87;;
19291;SDS011;9779;51.756;7.450;2023-02-22T07:20:08;13.23;;;8.77;;
19291;SDS011;9779;51.756;7.450;2023-02-22T07:22:35;20.67;;;9.53;;
19291;SDS011;9779;51.756;7.450;2023-02-22T07:25:02;31.77;;;8.83;;
19291;SDS011;9779;51.756;7.450;2023-02-22T07:27:28;35.83;;;8.47;;
19291;SDS011;9779;51.756;7.450;2023-02-22T07:29:53;25.43;;;8.40;;
19291;SDS011;9779;51.756;7.450;2023-02-22T07:32:19;98.83;;;10.37;;
19291;SDS011;9779;51.756;7.450;2023-02-22T07:34:44;13.87;;;9.10;;
19291;SDS011;9779;51.756;7.450;2023-02-22T07:37:10;13.47;;;8.23;;
19291;SDS011;9779;51.756;7.450;2023-02-22T07:39:35;9.97;;;7.77;;
19291;SDS011;9779;51.756;7.450;2023-02-22T07:42:02;14.10;;;8.10;;
19291;SDS011;9779;51.756;7.450;2023-02-22T07:44:27;10.90;;;8.10;;
19291;SDS011;9779;51.756;7.450;2023-02-22T07:46:53;46.90;;;8.73;;
19291;SDS011;9779;51.756;7.450;2023-02-22T07:49:19;43.83;;;9.43;;
19291;SDS011;9779;51.756;7.450;2023-02-22T07:51:44;28.70;;;8.30;;
19291;SDS011;9779;51.756;7.450;2023-02-22T07:54:10;9.00;;;8.30;;
19291;SDS011;9779;51.756;7.450;2023-02-22T07:56:35;18.20;;;9.90;;
19291;SDS011;9779;51.756;7.450;2023-02-22T07:59:01;9.20;;;8.50;;
19291;SDS011;9779;51.756;7.450;2023-02-22T08:01:27;9.83;;;6.63;;
19291;SDS011;9779;51.756;7.450;2023-02-22T08:03:52;7.67;;;6.90;;
19291;SDS011;9779;51.756;7.450;2023-02-22T08:06:18;15.43;;;6.70;;
19291;SDS011;9779;51.756;7.450;2023-02-22T08:08:44;7.27;;;6.57;;
19291;SDS011;9779;51.756;7.450;2023-02-22T08:11:11;6.43;;;5.97;;
19291;SDS011;9779;51.756;7.450;2023-02-22T08:13:37;7.53;;;5.73;;
19291;SDS011;9779;51.756;7.450;2023-02-22T08:16:03;6.30;;;5.80;;
19291;SDS011;9779;51.756;7.450;2023-02-22T08:18:29;6.67;;;5.93;;
19291;SDS011;9779;51.756;7.450;2023-02-22T08:20:54;9.50;;;5.87;;
19291;SDS011;9779;51.756;7.450;2023-02-22T08:23:21;12.37;;;6.17;;
19291;SDS011;9779;51.756;7.450;2023-02-22T08:25:49;15.43;;;6.20;;
19291;SDS011;9779;51.756;7.450;2023-02-22T08:28:16;6.07;;;5.67;;
19291;SDS011;9779;51.756;7.450;2023-02-22T08:30:44;6.53;;;5.60;;
19291;SDS011;9779;51.756;7.450;2023-02-22T08:33:11;12.10;;;5.10;;
19291;SDS011;9779;51.756;7.450;2023-02-22T08:35:43;6.17;;;5.77;;
19291;SDS011;9779;51.756;7.450;2023-02-22T08:38:42;6.53;;;6.00;;
19291;SDS011;9779;51.756;7.450;2023-02-22T08:41:01;5.87;;;5.50;;
19291;SDS011;9779;51.756;7.450;2023-02-22T08:43:27;6.37;;;5.73;;
19291;SDS011;9779;51.756;7.450;2023-02-22T08:45:52;6.87;;;6.37;;
19291;SDS011;9779;51.756;7.450;2023-02-22T08:48:18;10.33;;;6.10;;
19291;SDS011;9779;51.756;7.450;2023-02-22T08:50:44;6.30;;;5.90;;
19291;SDS011;9779;51.756;7.450;2023-02-22T08:53:11;6.53;;;6.03;;
19291;SDS011;9779;51.756;7.450;2023-02-22T08:55:37;7.37;;;6.87;;
19291;SDS011;9779;51.756;7.450;2023-02-22T08:58:04;7.53;;;6.90;;
19291;SDS011;9779;51.756;7.450;2023-02-22T09:00:33;8.27;;;7.67;;
19291;SDS011;9779;51.756;7.450;2023-02-22T09:03:00;9.20;;;8.20;;
19291;SDS011;9779;51.756;7.450;2023-02-22T09:05:26;9.90;;;7.30;;
19291;SDS011;9779;51.756;7.450;2023-02-22T09:07:52;9.97;;;7.67;;
19291;SDS011;9779;51.756;7.450;2023-02-22T09:10:19;9.53;;;8.13;;
19291;SDS011;9779;51.756;7.450;2023-02-22T09:12:50;8.90;;;7.90;;
19291;SDS011;9779;51.756;7.450;2023-02-22T09:15:16;8.87;;;8.27;;
19291;SDS011;9779;51.756;7.450;2023-02-22T09:17:42;8.00;;;7.43;;
19291;SDS011;9779;51.756;7.450;2023-02-22T09:20:08;8.77;;;8.13;;
19291;SDS011;9779;51.756;7.450;2023-02-22T09:22:36;8.70;;;8.00;;
19291;SDS011;9779;51.756;7.450;2023-02-22T09:25:02;8.10;;;7.50;;
19291;SDS011;9779;51.756;7.450;2023-02-22T09:27:28;8.93;;;8.03;;
19291;SDS011;9779;51.756;7.450;2023-02-22T09:29:54;9.77;;;7.73;;
19291;SDS011;9779;51.756;7.450;2023-02-22T09:32:20;9.50;;;8.70;;
19291;SDS011;9779;51.756;7.450;2023-02-22T09:34:47;9.10;;;8.40;;
19291;SDS011;9779;51.756;7.450;2023-02-22T09:37:13;9.97;;;9.03;;
19291;SDS011;9779;51.756;7.450;2023-02-22T09:39:38;8.90;;;8.10;;
19291;SDS011;9779;51.756;7.450;2023-02-22T09:42:15;9.67;;;8.87;;
19291;SDS011;9779;51.756;7.450;2023-02-22T09:47:22;10.10;;;9.30;;
19291;SDS011;9779;51.756;7.450;2023-02-22T09:50:03;10.23;;;9.43;;
19291;SDS011;9779;51.756;7.450;2023-02-22T09:52:42;11.43;;;10.33;;
19291;SDS011;9779;51.756;7.450;2023-02-22T09:57:52;10.87;;;9.77;;
19291;SDS011;9779;51.756;7.450;2023-02-22T10:00:21;11.03;;;8.87;;
19291;SDS011;9779;51.756;7.450;2023-02-22T10:05:37;9.60;;;8.80;;
19291;SDS011;9779;51.756;7.450;2023-02-22T10:08:10;10.53;;;9.73;;
19291;SDS011;9779;51.756;7.450;2023-02-22T10:10:38;9.47;;;8.47;;
19291;SDS011;9779;51.756;7.450;2023-02-22T10:16:17;9.67;;;8.77;;
19291;SDS011;9779;51.756;7.450;2023-02-22T10:21:48;8.20;;;7.60;;
19291;SDS011;9779;51.756;7.450;2023-02-22T10:27:21;11.03;;;9.30;;
19291;SDS011;9779;51.756;7.450;2023-02-22T10:30:22;9.07;;;8.17;;
19291;SDS011;9779;51.756;7.450;2023-02-22T10:35:46;9.97;;;9.03;;
19291;SDS011;9779;51.756;7.450;2023-02-22T10:38:15;11.00;;;10.17;;
19291;SDS011;9779;51.756;7.450;2023-02-22T10:40:48;9.70;;;8.90;;
19291;SDS011;9779;51.756;7.450;2023-02-22T10:43:19;12.77;;;10.13;;
19291;SDS011;9779;51.756;7.450;2023-02-22T10:45:45;10.30;;;9.33;;
19291;SDS011;9779;51.756;7.450;2023-02-22T10:48:13;10.67;;;9.57;;
19291;SDS011;9779;51.756;7.450;2023-02-22T10:50:43;11.37;;;10.47;;
19291;SDS011;9779;51.756;7.450;2023-02-22T10:53:10;9.90;;;8.93;;
19291;SDS011;9779;51.756;7.450;2023-02-22T10:56:20;10.80;;;9.87;;
19291;SDS011;9779;51.756;7.450;2023-02-22T11:06:30;9.50;;;8.77;;
19291;SDS011;9779;51.756;7.450;2023-02-22T11:09:30;13.60;;;10.07;;
19291;SDS011;9779;51.756;7.450;2023-02-22T11:11:49;11.73;;;10.50;;
19291;SDS011;9779;51.756;7.450;2023-02-22T11:14:31;11.10;;;9.73;;
19291;SDS011;9779;51.756;7.450;2023-02-22T11:16:57;11.83;;;10.67;;
19291;SDS011;9779;51.756;7.450;2023-02-22T11:19:28;11.77;;;10.77;;
19291;SDS011;9779;51.756;7.450;2023-02-22T11:22:08;12.27;;;11.07;;
19291;SDS011;9779;51.756;7.450;2023-02-22T11:24:46;11.90;;;10.70;;
19291;SDS011;9779;51.756;7.450;2023-02-22T11:27:21;12.07;;;10.93;;
19291;SDS011;9779;51.756;7.450;2023-02-22T11:30:45;16.03;;;9.90;;
19291;SDS011;9779;51.756;7.450;2023-02-22T11:33:15;11.90;;;10.83;;
19291;SDS011;9779;51.756;7.450;2023-02-22T11:35:56;15.17;;;11.20;;
19291;SDS011;9779;51.756;7.450;2023-02-22T11:38:30;12.20;;;11.10;;
19291;SDS011;9779;51.756;7.450;2023-02-22T11:43:42;11.60;;;10.50;;
19291;SDS011;9779;51.756;7.450;2023-02-22T11:46:13;11.57;;;10.63;;
19291;SDS011;9779;51.756;7.450;2023-02-22T11:48:45;11.70;;;10.67;;
19291;SDS011;9779;51.756;7.450;2023-02-22T11:51:25;11.80;;;10.70;;
19291;SDS011;9779;51.756;7.450;2023-02-22T11:56:47;11.47;;;10.50;;
19291;SDS011;9779;51.756;7.450;2023-02-22T12:01:56;12.27;;;11.17;;
19291;SDS011;9779;51.756;7.450;2023-02-22T12:09:50;12.27;;;11.17;;
19291;SDS011;9779;51.756;7.450;2023-02-22T12:12:40;12.30;;;11.40;;
19291;SDS011;9779;51.756;7.450;2023-02-22T12:20:56;15.70;;;10.03;;
19291;SDS011;9779;51.756;7.450;2023-02-22T12:23:38;10.33;;;9.33;;
19291;SDS011;9779;51.756;7.450;2023-02-22T12:26:10;10.33;;;9.43;;
19291;SDS011;9779;51.756;7.450;2023-02-22T12:32:11;10.80;;;9.90;;
19291;SDS011;9779;51.756;7.450;2023-02-22T12:34:38;5.00;;;4.60;;
19291;SDS011;9779;51.756;7.450;2023-02-22T12:37:30;9.97;;;5.27;;
19291;SDS011;9779;51.756;7.450;2023-02-22T12:40:17;9.07;;;8.23;;
19291;SDS011;9779;51.756;7.450;2023-02-22T12:45:58;9.53;;;8.70;;
19291;SDS011;9779;51.756;7.450;2023-02-22T12:53:36;9.93;;;9.20;;
19291;SDS011;9779;51.756;7.450;2023-02-22T13:01:14;11.77;;;8.20;;
19291;SDS011;9779;51.756;7.450;2023-02-22T13:03:43;8.70;;;7.93;;
19291;SDS011;9779;51.756;7.450;2023-02-22T13:14:59;9.00;;;8.17;;
19291;SDS011;9779;51.756;7.450;2023-02-22T13:25:40;10.57;;;8.13;;
19291;SDS011;9779;51.756;7.450;2023-02-22T13:48:04;11.53;;;7.47;;
19291;SDS011;9779;51.756;7.450;2023-02-22T13:50:42;12.20;;;7.83;;
19291;SDS011;9779;51.756;7.450;2023-02-22T13:53:46;9.60;;;8.20;;
19291;SDS011;9779;51.756;7.450;2023-02-22T13:56:20;8.57;;;7.13;;
19291;SDS011;9779;51.756;7.450;2023-02-22T13:59:00;8.03;;;7.37;;
19291;SDS011;9779;51.756;7.450;2023-02-22T14:01:37;14.10;;;7.57;;
19291;SDS011;9779;51.756;7.450;2023-02-22T14:04:20;9.20;;;7.33;;
19291;SDS011;9779;51.756;7.450;2023-02-22T14:06:53;7.83;;;7.13;;
19291;SDS011;9779;51.756;7.450;2023-02-22T14:09:45;10.13;;;8.03;;
19291;SDS011;9779;51.756;7.450;2023-02-22T14:17:45;8.67;;;7.70;;
19291;SDS011;9779;51.756;7.450;2023-02-22T14:22:39;8.47;;;7.60;;
19291;SDS011;9779;51.756;7.450;2023-02-22T14:39:22;8.97;;;6.47;;
19291;SDS011;9779;51.756;7.450;2023-02-22T14:42:01;6.73;;;6.17;;
19291;SDS011;9779;51.756;7.450;2023-02-22T14:44:38;7.63;;;5.83;;
19291;SDS011;9779;51.756;7.450;2023-02-22T14:47:23;9.13;;;5.90;;
19291;SDS011;9779;51.756;7.450;2023-02-22T14:49:54;6.17;;;5.57;;
19291;SDS011;9779;51.756;7.450;2023-02-22T14:52:29;8.77;;;5.97;;
19291;SDS011;9779;51.756;7.450;2023-02-22T14:55:05;7.10;;;5.63;;
19291;SDS011;9779;51.756;7.450;2023-02-22T14:57:44;7.90;;;5.90;;
19291;SDS011;9779;51.756;7.450;2023-02-22T15:00:22;7.90;;;5.37;;
19291;SDS011;9779;51.756;7.450;2023-02-22T15:02:57;8.23;;;5.13;;
19291;SDS011;9779;51.756;7.450;2023-02-22T15:05:25;6.53;;;5.67;;
19291;SDS011;9779;51.756;7.450;2023-02-22T15:08:00;7.43;;;5.93;;
19291;SDS011;9779;51.756;7.450;2023-02-22T15:10:51;10.20;;;5.43;;
19291;SDS011;9779;51.756;7.450;2023-02-22T15:13:26;6.50;;;5.90;;
19291;SDS011;9779;51.756;7.450;2023-02-22T15:15:58;10.70;;;5.27;;
19291;SDS011;9779;51.756;7.450;2023-02-22T15:18:31;8.87;;;6.00;;
19291;SDS011;9779;51.756;7.450;2023-02-22T15:21:08;11.60;;;5.80;;
19291;SDS011;9779;51.756;7.450;2023-02-22T15:23:40;11.50;;;6.57;;
19291;SDS011;9779;51.756;7.450;2023-02-22T15:26:42;10.13;;;6.70;;
19291;SDS011;9779;51.756;7.450;2023-02-22T15:35:14;12.33;;;6.67;;
19291;SDS011;9779;51.756;7.450;2023-02-22T15:37:42;7.07;;;6.53;;
19291;SDS011;9779;51.756;7.450;2023-02-22T15:40:14;7.47;;;6.70;;
19291;SDS011;9779;51.756;7.450;2023-02-22T15:42:51;12.33;;;6.73;;
19291;SDS011;9779;51.756;7.450;2023-02-22T15:45:21;11.57;;;6.33;;
19291;SDS011;9779;51.756;7.450;2023-02-22T15:47:49;10.53;;;6.87;;
19291;SDS011;9779;51.756;7.450;2023-02-22T15:50:21;7.13;;;6.53;;
19291;SDS011;9779;51.756;7.450;2023-02-22T15:53:00;8.40;;;6.33;;
19291;SDS011;9779;51.756;7.450;2023-02-22T15:57:58;8.37;;;7.07;;
19291;SDS011;9779;51.756;7.450;2023-02-22T16:00:31;7.50;;;6.80;;
19291;SDS011;9779;51.756;7.450;2023-02-22T16:03:06;10.70;;;6.87;;
19291;SDS011;9779;51.756;7.450;2023-02-22T16:08:08;9.77;;;8.07;;
19291;SDS011;9779;51.756;7.450;2023-02-22T16:10:46;12.03;;;8.50;;
19291;SDS011;9779;51.756;7.450;2023-02-22T16:13:25;10.73;;;8.00;;
19291;SDS011;9779;51.756;7.450;2023-02-22T16:16:02;16.20;;;8.07;;
19291;SDS011;9779;51.756;7.450;2023-02-22T16:21:08;17.03;;;12.60;;
19291;SDS011;9779;51.756;7.450;2023-02-22T16:23:46;23.97;;;12.80;;
19291;SDS011;9779;51.756;7.450;2023-02-22T16:29:04;11.83;;;9.13;;
19291;SDS011;9779;51.756;7.450;2023-02-22T16:31:33;10.63;;;8.93;;
19291;SDS011;9779;51.756;7.450;2023-02-22T16:34:01;14.20;;;9.07;;
19291;SDS011;9779;51.756;7.450;2023-02-22T16:36:36;11.73;;;9.17;;
19291;SDS011;9779;51.756;7.450;2023-02-22T16:39:06;21.67;;;8.87;;
19291;SDS011;9779;51.756;7.450;2023-02-22T16:41:34;9.73;;;8.77;;
19291;SDS011;9779;51.756;7.450;2023-02-22T16:44:00;13.63;;;8.50;;
19291;SDS011;9779;51.756;7.450;2023-02-22T16:46:26;13.67;;;8.67;;
19291;SDS011;9779;51.756;7.450;2023-02-22T16:48:52;18.23;;;11.77;;
19291;SDS011;9779;51.756;7.450;2023-02-22T16:51:19;12.53;;;8.77;;
19291;SDS011;9779;51.756;7.450;2023-02-22T16:53:48;12.93;;;9.07;;
19291;SDS011;9779;51.756;7.450;2023-02-22T16:56:17;10.40;;;8.97;;
19291;SDS011;9779;51.756;7.450;2023-02-22T16:58:44;10.23;;;9.13;;
19291;SDS011;9779;51.756;7.450;2023-02-22T17:01:13;14.47;;;8.33;;
19291;SDS011;9779;51.756;7.450;2023-02-22T17:03:40;10.97;;;8.70;;
19291;SDS011;9779;51.756;7.450;2023-02-22T17:06:06;11.27;;;8.53;;
19291;SDS011;9779;51.756;7.450;2023-02-22T17:08:34;13.00;;;8.43;;
19291;SDS011;9779;51.756;7.450;2023-02-22T17:11:01;8.90;;;8.13;;
19291;SDS011;9779;51.756;7.450;2023-02-22T17:13:27;12.27;;;9.10;;
19291;SDS011;9779;51.756;7.450;2023-02-22T17:15:53;19.70;;;12.97;;
19291;SDS011;9779;51.756;7.450;2023-02-22T17:18:20;22.60;;;13.60;;
19291;SDS011;9779;51.756;7.450;2023-02-22T17:20:47;11.10;;;9.97;;
19291;SDS011;9779;51.756;7.450;2023-02-22T17:23:17;10.63;;;9.13;;
19291;SDS011;9779;51.756;7.450;2023-02-22T17:28:24;12.53;;;8.60;;
19291;SDS011;9779;51.756;7.450;2023-02-22T17:30:51;11.33;;;7.83;;
19291;SDS011;9779;51.756;7.450;2023-02-22T17:33:19;11.20;;;8.80;;
19291;SDS011;9779;51.756;7.450;2023-02-22T17:35:50;8.77;;;8.00;;
19291;SDS011;9779;51.756;7.450;2023-02-22T17:38:16;9.80;;;8.70;;
19291;SDS011;9779;51.756;7.450;2023-02-22T17:40:42;13.90;;;9.77;;